Time;durP1;ratioP1;P1;durP2;ratioP2;P2;SDS_P1;SDS_P2;PMS_P1;PMS_P2;Temp;Humidity;BMP_temperature;BMP_pressure;BME280_temperature;BME280_humidity;BME280_pressure;Samples;Min_cycle;Max_cycle;Signal;HPM_P1;HPM_P2
2023/08/07 00:00:53;;;;;;;11.18;10.68;;;;;;;;;;5072350;28;20496;-60
2023/08/07 00:03:18;;;;;;;12.30;11.70;;;;;;;;;;5070338;28;20079;-61
2023/08/07 00:05:51;;;;;;;11.20;10.70;;;;;;;;;;5069370;28;20120;-58
2023/08/07 00:08:17;;;;;;;11.10;10.60;;;;;;;;;;5070872;28;20043;-59
2023/08/07 00:10:42;;;;;;;11.40;10.90;;;;;;;;;;5070929;28;20078;-59
2023/08/07 00:13:07;;;;;;;11.13;10.63;;;;;;;;;;5068877;28;20019;-58
2023/08/07 00:15:35;;;;;;;11.55;11.05;;;;;;;;;;5053524;28;20086;-59
2023/08/07 00:18:01;;;;;;;11.98;11.38;;;;;;;;;;5071119;28;20365;-58
2023/08/07 00:20:26;;;;;;;11.60;11.10;;;;;;;;;;5070335;28;20035;-59
2023/08/07 00:22:51;;;;;;;11.43;10.93;;;;;;;;;;5069693;28;20021;-59
2023/08/07 00:25:17;;;;;;;11.75;11.20;;;;;;;;;;5069938;28;20032;-59
2023/08/07 00:27:42;;;;;;;11.25;10.75;;;;;;;;;;5071905;28;20024;-59
2023/08/07 00:30:07;;;;;;;11.93;11.35;;;;;;;;;;5072364;28;20017;-58
2023/08/07 00:32:33;;;;;;;11.60;11.10;;;;;;;;;;5070523;28;20017;-58
2023/08/07 00:34:59;;;;;;;11.30;10.80;;;;;;;;;;5070790;28;20056;-59
2023/08/07 00:37:25;;;;;;;11.20;10.70;;;;;;;;;;5070656;28;20021;-58
2023/08/07 00:39:50;;;;;;;11.70;11.20;;;;;;;;;;5070874;28;20039;-58
2023/08/07 00:42:15;;;;;;;11.82;11.27;;;;;;;;;;5069526;28;20023;-58
2023/08/07 00:44:40;;;;;;;11.30;10.80;;;;;;;;;;5073015;28;20080;-59
2023/08/07 00:47:06;;;;;;;11.10;10.60;;;;;;;;;;5070453;28;20055;-59
2023/08/07 00:49:31;;;;;;;12.07;11.48;;;;;;;;;;5070394;28;20058;-58
2023/08/07 00:51:57;;;;;;;11.35;10.85;;;;;;;;;;5070378;28;20472;-59
2023/08/07 00:54:22;;;;;;;12.00;11.40;;;;;;;;;;5068394;28;20096;-59
2023/08/07 00:56:47;;;;;;;11.13;10.63;;;;;;;;;;5067921;28;20033;-59
2023/08/07 00:59:14;;;;;;;11.43;10.93;;;;;;;;;;5069800;28;20031;-58
2023/08/07 01:01:40;;;;;;;11.20;10.70;;;;;;;;;;5069664;28;20119;-59
2023/08/07 01:04:05;;;;;;;11.15;10.65;;;;;;;;;;5068246;28;20064;-59
2023/08/07 01:06:30;;;;;;;11.20;10.70;;;;;;;;;;5069956;28;20416;-58
2023/08/07 01:08:57;;;;;;;11.40;10.90;;;;;;;;;;5070111;28;20083;-58
2023/08/07 01:11:22;;;;;;;11.35;10.85;;;;;;;;;;5073223;28;20253;-58
2023/08/07 01:13:56;;;;;;;11.43;10.93;;;;;;;;;;5070162;28;20025;-59
2023/08/07 01:16:26;;;;;;;11.00;10.50;;;;;;;;;;5067302;28;20104;-59
2023/08/07 01:18:52;;;;;;;11.25;10.75;;;;;;;;;;5070636;28;20024;-58
2023/08/07 01:21:18;;;;;;;11.13;10.63;;;;;;;;;;5070193;28;20035;-58
2023/08/07 01:23:44;;;;;;;11.90;11.30;;;;;;;;;;5070240;28;20020;-58
2023/08/07 01:26:09;;;;;;;11.55;11.05;;;;;;;;;;5052671;28;20533;-60
2023/08/07 01:28:38;;;;;;;11.40;10.90;;;;;;;;;;5068508;28;20534;-59
2023/08/07 01:31:04;;;;;;;11.05;10.55;;;;;;;;;;5071854;28;20070;-58
2023/08/07 01:33:50;;;;;;;11.70;11.18;;;;;;;;;;5066899;28;20387;-59
2023/08/07 01:36:16;;;;;;;12.73;12.13;;;;;;;;;;5066884;28;20019;-58
2023/08/07 01:38:42;;;;;;;11.05;10.55;;;;;;;;;;5066333;28;20108;-59
2023/08/07 01:41:07;;;;;;;11.43;10.93;;;;;;;;;;5067449;28;20082;-58
2023/08/07 01:43:33;;;;;;;11.30;10.80;;;;;;;;;;5067193;28;20379;-59
2023/08/07 01:45:59;;;;;;;11.07;10.57;;;;;;;;;;5067973;28;20035;-58
2023/08/07 01:48:25;;;;;;;11.68;11.18;;;;;;;;;;5069575;28;20027;-60
2023/08/07 01:50:50;;;;;;;11.20;10.70;;;;;;;;;;5068503;28;20398;-58
2023/08/07 01:53:15;;;;;;;11.40;10.90;;;;;;;;;;5069278;28;20595;-58
2023/08/07 01:55:41;;;;;;;11.20;10.70;;;;;;;;;;5071610;28;20364;-58
2023/08/07 01:58:06;;;;;;;11.23;10.73;;;;;;;;;;5070065;28;20100;-58
2023/08/07 02:00:31;;;;;;;11.30;10.80;;;;;;;;;;5074426;28;20090;-59
2023/08/07 02:02:57;;;;;;;11.60;11.10;;;;;;;;;;5074468;28;20044;-58
2023/08/07 02:05:22;;;;;;;11.43;10.93;;;;;;;;;;5067910;28;20021;-59
2023/08/07 02:07:47;;;;;;;11.73;11.18;;;;;;;;;;5068767;28;20031;-58
2023/08/07 02:10:13;;;;;;;11.50;11.00;;;;;;;;;;5068902;28;20067;-59
2023/08/07 02:12:38;;;;;;;11.00;10.50;;;;;;;;;;5067403;28;20035;-59
2023/08/07 02:15:04;;;;;;;10.82;10.32;;;;;;;;;;5067908;28;20021;-58
2023/08/07 02:17:40;;;;;;;11.07;10.57;;;;;;;;;;5051583;28;20020;-58
2023/08/07 02:20:06;;;;;;;11.27;10.77;;;;;;;;;;5070395;28;20036;-58
2023/08/07 02:22:31;;;;;;;11.40;10.90;;;;;;;;;;5070935;28;20028;-60
2023/08/07 02:24:57;;;;;;;12.32;11.73;;;;;;;;;;5066115;28;20028;-59
2023/08/07 02:27:22;;;;;;;11.20;10.70;;;;;;;;;;5071208;28;20025;-59
2023/08/07 02:29:47;;;;;;;11.60;11.10;;;;;;;;;;5067699;28;20037;-58
2023/08/07 02:32:12;;;;;;;11.40;10.90;;;;;;;;;;5067193;28;20021;-58
2023/08/07 02:34:38;;;;;;;11.88;11.30;;;;;;;;;;5072927;28;20048;-59
2023/08/07 02:37:03;;;;;;;11.18;10.68;;;;;;;;;;5072990;28;20075;-59
2023/08/07 02:39:29;;;;;;;12.27;11.68;;;;;;;;;;5073621;28;20090;-60
2023/08/07 02:41:54;;;;;;;11.50;11.00;;;;;;;;;;5074505;28;20044;-59
2023/08/07 02:44:20;;;;;;;11.60;11.10;;;;;;;;;;5072394;28;20438;-58
2023/08/07 02:46:45;;;;;;;11.35;10.85;;;;;;;;;;5072618;28;20021;-59
2023/08/07 02:49:10;;;;;;;11.30;10.80;;;;;;;;;;5069583;28;20021;-58
2023/08/07 02:51:36;;;;;;;11.05;10.55;;;;;;;;;;5072544;28;20397;-59
2023/08/07 02:54:01;;;;;;;11.43;10.93;;;;;;;;;;5070709;28;20020;-59
2023/08/07 02:56:26;;;;;;;13.15;12.50;;;;;;;;;;5072087;28;20028;-59
2023/08/07 02:58:52;;;;;;;11.20;10.70;;;;;;;;;;5071722;28;20024;-59
2023/08/07 03:01:17;;;;;;;11.45;10.95;;;;;;;;;;5072248;28;20401;-58
2023/08/07 03:03:43;;;;;;;11.55;11.05;;;;;;;;;;5073180;28;20017;-58
2023/08/07 03:06:08;;;;;;;11.65;11.15;;;;;;;;;;5069117;28;20067;-58
2023/08/07 03:08:33;;;;;;;11.15;10.65;;;;;;;;;;5072298;28;20025;-58
2023/08/07 03:10:59;;;;;;;11.45;10.95;;;;;;;;;;5072156;28;20028;-59
2023/08/07 03:13:25;;;;;;;11.30;10.80;;;;;;;;;;5070073;28;20446;-58
2023/08/07 03:15:50;;;;;;;11.60;11.05;;;;;;;;;;5069915;28;20023;-59
2023/08/07 03:18:16;;;;;;;11.60;11.10;;;;;;;;;;5072483;28;20020;-58
2023/08/07 03:20:43;;;;;;;11.18;10.68;;;;;;;;;;5068933;28;20030;-58
2023/08/07 03:23:08;;;;;;;10.90;10.40;;;;;;;;;;5071903;28;20029;-59
2023/08/07 03:25:33;;;;;;;11.65;11.13;;;;;;;;;;5072362;28;20028;-58
2023/08/07 03:27:59;;;;;;;11.40;10.90;;;;;;;;;;5071584;28;20047;-59
2023/08/07 03:30:24;;;;;;;11.50;11.00;;;;;;;;;;5071464;28;20032;-58
2023/08/07 03:32:49;;;;;;;11.00;10.50;;;;;;;;;;5071421;28;20384;-59
2023/08/07 03:35:15;;;;;;;11.60;11.10;;;;;;;;;;5071295;28;20024;-59
2023/08/07 03:37:40;;;;;;;11.30;10.80;;;;;;;;;;5071675;28;20099;-59
2023/08/07 03:40:06;;;;;;;11.40;10.90;;;;;;;;;;5071630;28;20024;-59
2023/08/07 03:42:31;;;;;;;11.00;10.50;;;;;;;;;;5071360;28;20032;-59
2023/08/07 03:44:56;;;;;;;11.25;10.75;;;;;;;;;;5071522;28;20411;-59
2023/08/07 03:47:21;;;;;;;11.93;11.32;;;;;;;;;;5070928;28;20071;-59
2023/08/07 03:49:47;;;;;;;11.23;10.73;;;;;;;;;;5068004;28;20365;-58
2023/08/07 03:52:12;;;;;;;11.43;10.93;;;;;;;;;;5069169;28;20569;-59
2023/08/07 03:54:38;;;;;;;11.70;11.20;;;;;;;;;;5072513;28;20017;-60
2023/08/07 03:57:03;;;;;;;12.18;11.57;;;;;;;;;;5068703;28;20024;-59
2023/08/07 03:59:29;;;;;;;11.55;11.05;;;;;;;;;;5071371;28;20063;-58
2023/08/07 04:01:55;;;;;;;11.20;10.70;;;;;;;;;;5054232;28;20118;-60
2023/08/07 04:04:20;;;;;;;11.45;10.95;;;;;;;;;;5070953;28;20515;-59
2023/08/07 04:06:45;;;;;;;11.18;10.68;;;;;;;;;;5067890;28;20056;-58
2023/08/07 04:09:11;;;;;;;11.15;10.65;;;;;;;;;;5070822;28;20101;-59
2023/08/07 04:11:37;;;;;;;11.13;10.63;;;;;;;;;;5071090;28;20139;-59
2023/08/07 04:14:03;;;;;;;11.70;11.20;;;;;;;;;;5073103;28;20091;-58
2023/08/07 04:16:29;;;;;;;11.48;10.98;;;;;;;;;;5069115;28;20487;-59
2023/08/07 04:18:55;;;;;;;11.35;10.85;;;;;;;;;;5071313;28;20025;-59
2023/08/07 04:21:20;;;;;;;11.90;11.30;;;;;;;;;;5072753;28;20032;-58
2023/08/07 04:23:45;;;;;;;11.25;10.75;;;;;;;;;;5073872;28;20008;-58
2023/08/07 04:26:10;;;;;;;11.77;11.25;;;;;;;;;;5072890;28;20148;-59
2023/08/07 04:28:36;;;;;;;11.70;11.20;;;;;;;;;;5072820;28;20021;-59
2023/08/07 04:31:01;;;;;;;11.57;11.07;;;;;;;;;;5071047;28;20055;-60
2023/08/07 04:33:26;;;;;;;12.00;11.40;;;;;;;;;;5070131;28;20045;-59
2023/08/07 04:35:52;;;;;;;11.80;11.27;;;;;;;;;;5070075;28;20426;-58
2023/08/07 04:38:17;;;;;;;11.70;11.20;;;;;;;;;;5070147;28;20024;-59
2023/08/07 04:40:49;;;;;;;11.40;10.90;;;;;;;;;;5070718;28;20025;-58
2023/08/07 04:43:15;;;;;;;12.18;11.57;;;;;;;;;;5069653;28;20322;-58
2023/08/07 04:45:41;;;;;;;12.55;11.95;;;;;;;;;;5068962;28;20021;-59
2023/08/07 04:48:07;;;;;;;11.98;11.45;;;;;;;;;;5069995;28;20060;-58
2023/08/07 04:50:32;;;;;;;12.00;11.40;;;;;;;;;;5068304;28;20104;-60
2023/08/07 04:52:57;;;;;;;11.95;11.35;;;;;;;;;;5070209;28;20144;-59
2023/08/07 04:55:23;;;;;;;13.00;12.40;;;;;;;;;;5070160;28;20069;-60
2023/08/07 04:57:50;;;;;;;11.63;11.13;;;;;;;;;;5067991;28;20400;-59
2023/08/07 05:00:16;;;;;;;13.18;12.55;;;;;;;;;;5071105;28;20119;-60
2023/08/07 05:02:41;;;;;;;11.75;11.23;;;;;;;;;;5069241;28;20111;-59
2023/08/07 05:05:07;;;;;;;11.63;11.10;;;;;;;;;;5052269;28;20066;-58
2023/08/07 05:07:33;;;;;;;11.75;11.25;;;;;;;;;;5068219;28;20020;-59
2023/08/07 05:09:59;;;;;;;11.57;11.07;;;;;;;;;;5070933;28;20024;-59
2023/08/07 05:12:24;;;;;;;12.35;11.75;;;;;;;;;;5070374;28;20076;-59
2023/08/07 05:14:50;;;;;;;11.55;11.05;;;;;;;;;;5069051;28;20027;-58
2023/08/07 05:17:15;;;;;;;11.68;11.18;;;;;;;;;;5072133;28;20468;-58
2023/08/07 05:19:40;;;;;;;12.13;11.52;;;;;;;;;;5071511;28;20040;-58
2023/08/07 05:22:06;;;;;;;12.13;11.52;;;;;;;;;;5069737;28;20024;-58
2023/08/07 05:24:38;;;;;;;12.25;11.65;;;;;;;;;;5071051;28;20086;-59
2023/08/07 05:27:04;;;;;;;11.73;11.23;;;;;;;;;;5071805;28;20016;-59
2023/08/07 05:29:30;;;;;;;11.82;11.27;;;;;;;;;;5069525;28;20016;-58
2023/08/07 05:31:55;;;;;;;12.40;11.80;;;;;;;;;;5068599;28;20023;-59
2023/08/07 05:34:20;;;;;;;12.20;11.60;;;;;;;;;;5066568;28;20337;-59
2023/08/07 05:36:46;;;;;;;11.40;10.90;;;;;;;;;;5070462;28;20019;-59
2023/08/07 05:39:11;;;;;;;12.35;11.75;;;;;;;;;;5069381;28;20029;-59
2023/08/07 05:41:38;;;;;;;11.70;11.20;;;;;;;;;;5069117;28;20063;-59
2023/08/07 05:44:03;;;;;;;11.60;11.10;;;;;;;;;;5069084;28;20096;-58
2023/08/07 05:46:28;;;;;;;13.25;12.57;;;;;;;;;;5066676;28;20115;-59
2023/08/07 05:48:53;;;;;;;11.80;11.27;;;;;;;;;;5068485;28;20028;-59
2023/08/07 05:51:19;;;;;;;12.25;11.65;;;;;;;;;;5070656;28;20261;-59
2023/08/07 05:53:45;;;;;;;12.30;11.70;;;;;;;;;;5069119;28;20159;-58
2023/08/07 05:56:10;;;;;;;12.75;12.15;;;;;;;;;;5068860;28;20020;-59
2023/08/07 05:58:35;;;;;;;12.18;11.57;;;;;;;;;;5069800;28;20024;-59
2023/08/07 06:01:00;;;;;;;12.23;11.65;;;;;;;;;;5070927;28;20068;-59
2023/08/07 06:03:26;;;;;;;12.30;11.70;;;;;;;;;;5069098;28;20415;-60
2023/08/07 06:05:51;;;;;;;12.80;12.20;;;;;;;;;;5068977;28;20036;-60
2023/08/07 06:08:17;;;;;;;12.10;11.50;;;;;;;;;;5068839;28;20383;-59
2023/08/07 06:10:42;;;;;;;13.10;12.48;;;;;;;;;;5071373;28;20028;-59
2023/08/07 06:13:08;;;;;;;11.95;11.35;;;;;;;;;;5076637;28;20023;-59
2023/08/07 06:15:33;;;;;;;12.73;12.13;;;;;;;;;;5073521;28;20491;-60
2023/08/07 06:17:59;;;;;;;13.13;12.50;;;;;;;;;;5071570;28;20039;-59
2023/08/07 06:20:24;;;;;;;11.70;11.20;;;;;;;;;;5073842;28;20090;-59
2023/08/07 06:22:49;;;;;;;12.70;12.10;;;;;;;;;;5074156;28;20794;-58
2023/08/07 06:25:15;;;;;;;12.00;11.40;;;;;;;;;;5072577;28;20024;-59
2023/08/07 06:27:40;;;;;;;12.20;11.60;;;;;;;;;;5072698;28;20028;-59
2023/08/07 06:30:05;;;;;;;11.93;11.38;;;;;;;;;;5073989;28;20044;-59
2023/08/07 06:32:31;;;;;;;12.32;11.73;;;;;;;;;;5072523;28;20387;-59
2023/08/07 06:34:57;;;;;;;11.57;11.07;;;;;;;;;;5072557;28;20032;-59
2023/08/07 06:37:23;;;;;;;11.82;11.32;;;;;;;;;;5070570;28;20020;-59
2023/08/07 06:39:48;;;;;;;11.55;11.05;;;;;;;;;;5073063;28;20099;-58
2023/08/07 06:42:14;;;;;;;12.13;11.57;;;;;;;;;;5072368;28;20047;-60
2023/08/07 06:44:39;;;;;;;11.80;11.30;;;;;;;;;;5071904;28;20032;-58
2023/08/07 06:47:04;;;;;;;12.13;11.60;;;;;;;;;;5073338;28;20071;-59
2023/08/07 06:49:31;;;;;;;11.82;11.32;;;;;;;;;;5072611;28;20020;-59
2023/08/07 06:51:58;;;;;;;11.70;11.20;;;;;;;;;;5073348;28;20150;-59
2023/08/07 06:54:24;;;;;;;12.10;11.60;;;;;;;;;;5073001;28;20568;-59
2023/08/07 06:56:49;;;;;;;12.18;11.68;;;;;;;;;;5075003;28;20115;-58
2023/08/07 06:59:14;;;;;;;11.93;11.43;;;;;;;;;;5071954;28;20036;-59
2023/08/07 07:01:40;;;;;;;11.73;11.23;;;;;;;;;;5073013;28;20040;-59
2023/08/07 07:04:05;;;;;;;11.77;11.27;;;;;;;;;;5071938;28;20357;-60
2023/08/07 07:06:30;;;;;;;12.35;11.82;;;;;;;;;;5071723;28;20029;-60
2023/08/07 07:08:56;;;;;;;12.23;11.73;;;;;;;;;;5072478;28;20070;-60
2023/08/07 07:11:24;;;;;;;11.80;11.30;;;;;;;;;;5074032;28;20312;-60
2023/08/07 07:13:50;;;;;;;11.70;11.20;;;;;;;;;;5071148;28;20737;-60
2023/08/07 07:16:16;;;;;;;12.20;11.70;;;;;;;;;;5071954;28;20017;-58
2023/08/07 07:18:41;;;;;;;12.07;11.57;;;;;;;;;;5054184;28;20028;-60
2023/08/07 07:21:06;;;;;;;12.23;11.73;;;;;;;;;;5068783;28;20032;-58
2023/08/07 07:23:32;;;;;;;11.52;11.02;;;;;;;;;;5071883;28;20020;-59
2023/08/07 07:25:57;;;;;;;11.65;11.15;;;;;;;;;;5070680;28;20028;-60
2023/08/07 07:28:23;;;;;;;11.38;10.88;;;;;;;;;;5071707;28;20063;-60
2023/08/07 07:30:49;;;;;;;11.65;11.15;;;;;;;;;;5072174;28;20041;-60
2023/08/07 07:33:14;;;;;;;11.60;11.10;;;;;;;;;;5072542;28;20040;-59
2023/08/07 07:35:40;;;;;;;11.57;11.07;;;;;;;;;;5072568;28;20428;-60
2023/08/07 07:38:06;;;;;;;11.70;11.20;;;;;;;;;;5072247;28;20020;-59
2023/08/07 07:40:31;;;;;;;11.68;11.18;;;;;;;;;;5073734;28;20039;-59
2023/08/07 07:42:56;;;;;;;12.50;11.90;;;;;;;;;;5068511;28;20021;-59
2023/08/07 07:45:22;;;;;;;12.23;11.70;;;;;;;;;;5068095;28;20037;-59
2023/08/07 07:47:47;;;;;;;13.45;12.85;;;;;;;;;;5068850;28;20261;-59
2023/08/07 07:50:13;;;;;;;11.98;11.48;;;;;;;;;;5070628;28;20024;-59
2023/08/07 07:52:39;;;;;;;11.85;11.35;;;;;;;;;;5072661;28;20024;-58
2023/08/07 07:55:05;;;;;;;11.57;11.07;;;;;;;;;;5071013;28;20021;-59
2023/08/07 07:57:30;;;;;;;11.82;11.32;;;;;;;;;;5069527;28;20016;-59
2023/08/07 07:59:55;;;;;;;11.50;11.00;;;;;;;;;;5074104;28;20482;-58
2023/08/07 08:02:22;;;;;;;12.02;11.52;;;;;;;;;;5071445;28;20514;-58
2023/08/07 08:04:48;;;;;;;11.93;11.43;;;;;;;;;;5070557;28;20107;-58
2023/08/07 08:07:13;;;;;;;11.60;11.10;;;;;;;;;;5068896;28;20163;-59
2023/08/07 08:09:38;;;;;;;11.80;11.30;;;;;;;;;;5070741;28;20101;-59
2023/08/07 08:12:04;;;;;;;11.83;11.33;;;;;;;;;;5070287;28;20027;-58
2023/08/07 08:14:29;;;;;;;12.10;11.60;;;;;;;;;;5072792;28;20254;-59
2023/08/07 08:16:54;;;;;;;11.87;11.37;;;;;;;;;;5071670;28;20408;-59
2023/08/07 08:19:20;;;;;;;11.70;11.20;;;;;;;;;;5072181;28;20265;-58
2023/08/07 08:21:45;;;;;;;12.05;11.55;;;;;;;;;;5068276;28;20624;-59
2023/08/07 08:24:10;;;;;;;11.80;11.30;;;;;;;;;;5070831;28;20021;-59
2023/08/07 08:26:36;;;;;;;11.70;11.20;;;;;;;;;;5069384;28;20261;-59
2023/08/07 08:29:01;;;;;;;11.55;11.05;;;;;;;;;;5070005;28;20253;-59
2023/08/07 08:31:26;;;;;;;11.85;11.35;;;;;;;;;;5071468;28;20432;-59
2023/08/07 08:33:51;;;;;;;12.40;11.80;;;;;;;;;;5069032;28;20474;-60
2023/08/07 08:36:17;;;;;;;11.95;11.45;;;;;;;;;;5068456;28;20307;-59
2023/08/07 08:38:45;;;;;;;11.80;11.30;;;;;;;;;;5068080;28;20040;-58
2023/08/07 08:41:10;;;;;;;11.90;11.40;;;;;;;;;;5069654;28;20052;-59
2023/08/07 08:43:37;;;;;;;12.18;11.68;;;;;;;;;;5068360;28;20083;-59
2023/08/07 08:46:04;;;;;;;11.60;11.10;;;;;;;;;;5072064;28;20025;-59
2023/08/07 08:48:31;;;;;;;12.82;12.23;;;;;;;;;;5068775;28;20056;-59
2023/08/07 08:50:56;;;;;;;12.02;11.52;;;;;;;;;;5069171;28;20096;-59
2023/08/07 08:53:22;;;;;;;12.40;11.80;;;;;;;;;;5071616;28;20020;-59
2023/08/07 08:55:48;;;;;;;11.68;11.18;;;;;;;;;;5067956;28;20020;-59
2023/08/07 08:58:16;;;;;;;11.80;11.30;;;;;;;;;;5067854;28;20031;-59
2023/08/07 09:00:41;;;;;;;11.88;11.38;;;;;;;;;;5066094;28;20041;-59
2023/08/07 09:03:07;;;;;;;12.00;11.50;;;;;;;;;;5049172;28;20013;-59
2023/08/07 09:05:33;;;;;;;11.70;11.20;;;;;;;;;;5052033;28;20551;-60
2023/08/07 09:07:58;;;;;;;11.57;11.07;;;;;;;;;;5053037;28;20063;-59
2023/08/07 09:10:24;;;;;;;11.80;11.30;;;;;;;;;;5053960;28;20040;-60
2023/08/07 09:12:54;;;;;;;11.52;11.02;;;;;;;;;;5048874;28;20131;-59
2023/08/07 09:15:19;;;;;;;12.00;11.50;;;;;;;;;;5037282;28;20034;-58
2023/08/07 09:17:46;;;;;;;11.73;11.23;;;;;;;;;;5055673;28;20013;-59
2023/08/07 09:20:11;;;;;;;12.00;11.50;;;;;;;;;;5052397;28;20496;-61
2023/08/07 09:22:37;;;;;;;12.18;11.68;;;;;;;;;;5058824;28;20068;-59
2023/08/07 09:25:03;;;;;;;11.95;11.45;;;;;;;;;;5055643;28;20020;-59
2023/08/07 09:27:28;;;;;;;11.57;11.07;;;;;;;;;;5045042;28;20457;-59
2023/08/07 09:29:57;;;;;;;11.60;11.10;;;;;;;;;;5048607;28;20024;-59
2023/08/07 09:32:24;;;;;;;11.65;11.15;;;;;;;;;;5049929;28;20025;-58
2023/08/07 09:34:49;;;;;;;11.60;11.10;;;;;;;;;;5054098;28;20379;-55
2023/08/07 09:37:15;;;;;;;11.90;11.40;;;;;;;;;;5059408;28;20029;-59
2023/08/07 09:39:40;;;;;;;12.32;11.73;;;;;;;;;;5049940;28;20045;-59
2023/08/07 09:42:15;;;;;;;11.25;10.75;;;;;;;;;;5052374;28;20032;-60
2023/08/07 09:44:41;;;;;;;11.50;11.00;;;;;;;;;;5045919;28;20051;-59
2023/08/07 09:47:12;;;;;;;11.88;11.38;;;;;;;;;;5056113;28;20032;-59
2023/08/07 09:49:38;;;;;;;11.43;10.93;;;;;;;;;;5050904;28;20032;-59
2023/08/07 09:52:06;;;;;;;11.63;11.13;;;;;;;;;;5062864;28;20388;-60
2023/08/07 09:54:32;;;;;;;11.68;11.18;;;;;;;;;;5051292;28;20024;-59
2023/08/07 09:56:58;;;;;;;12.45;11.85;;;;;;;;;;5064257;28;20029;-59
2023/08/07 09:59:23;;;;;;;11.80;11.30;;;;;;;;;;5051431;28;20040;-60
2023/08/07 10:01:49;;;;;;;12.10;11.60;;;;;;;;;;5065141;28;20095;-60
2023/08/07 10:04:15;;;;;;;12.25;11.70;;;;;;;;;;5068643;28;20756;-59
2023/08/07 10:06:41;;;;;;;12.50;11.90;;;;;;;;;;5069090;28;20032;-59
2023/08/07 10:09:08;;;;;;;12.60;12.00;;;;;;;;;;5070416;28;20302;-60
2023/08/07 10:11:34;;;;;;;11.90;11.40;;;;;;;;;;5068065;28;20107;-59
2023/08/07 10:14:00;;;;;;;11.50;11.00;;;;;;;;;;5068627;28;20802;-59
2023/08/07 10:16:26;;;;;;;11.70;11.20;;;;;;;;;;5067461;28;20506;-59
2023/08/07 10:18:51;;;;;;;11.73;11.23;;;;;;;;;;5069850;28;20020;-60
2023/08/07 10:21:16;;;;;;;11.45;10.95;;;;;;;;;;5068939;28;20070;-60
2023/08/07 10:23:43;;;;;;;11.95;11.45;;;;;;;;;;5069537;28;20108;-59
2023/08/07 10:26:10;;;;;;;11.60;11.10;;;;;;;;;;5069237;28;20047;-60
2023/08/07 10:28:40;;;;;;;11.85;11.35;;;;;;;;;;5069473;28;20027;-59
2023/08/07 10:31:09;;;;;;;12.13;11.60;;;;;;;;;;5069626;28;20032;-60
2023/08/07 10:33:35;;;;;;;11.75;11.25;;;;;;;;;;5050362;28;20528;-60
2023/08/07 10:36:07;;;;;;;11.43;10.93;;;;;;;;;;5065358;28;20035;-60
2023/08/07 10:38:35;;;;;;;11.80;11.30;;;;;;;;;;5067034;28;20116;-58
2023/08/07 10:41:10;;;;;;;11.63;11.13;;;;;;;;;;5069037;28;20191;-61
2023/08/07 10:43:39;;;;;;;11.88;11.38;;;;;;;;;;5068563;28;20054;-59
2023/08/07 10:46:25;;;;;;;11.45;10.95;;;;;;;;;;5067814;28;20020;-59
2023/08/07 10:48:59;;;;;;;12.10;11.60;;;;;;;;;;5067911;28;20036;-59
2023/08/07 10:51:28;;;;;;;11.88;11.38;;;;;;;;;;5068917;28;20029;-60
2023/08/07 10:53:56;;;;;;;11.48;10.98;;;;;;;;;;5068498;28;20119;-58
2023/08/07 10:56:31;;;;;;;11.60;11.10;;;;;;;;;;5066913;28;20064;-59
2023/08/07 10:58:57;;;;;;;11.38;10.88;;;;;;;;;;5070634;28;20028;-60
2023/08/07 11:01:27;;;;;;;11.95;11.45;;;;;;;;;;5072395;28;20048;-59
2023/08/07 11:03:57;;;;;;;11.45;10.95;;;;;;;;;;5072401;28;20103;-58
2023/08/07 11:06:23;;;;;;;11.80;11.30;;;;;;;;;;5072054;28;20029;-59
2023/08/07 11:08:49;;;;;;;11.80;11.30;;;;;;;;;;5070863;28;20025;-59
2023/08/07 11:11:14;;;;;;;11.73;11.23;;;;;;;;;;5071497;28;20450;-59
2023/08/07 11:13:40;;;;;;;11.88;11.38;;;;;;;;;;5072082;28;20099;-58
2023/08/07 11:16:05;;;;;;;12.43;11.82;;;;;;;;;;5071841;28;20036;-58
2023/08/07 11:18:31;;;;;;;11.60;11.10;;;;;;;;;;5072380;28;20163;-59
2023/08/07 11:20:56;;;;;;;11.43;10.93;;;;;;;;;;5072933;28;20022;-59
2023/08/07 11:23:25;;;;;;;11.80;11.30;;;;;;;;;;5071426;28;20028;-60
2023/08/07 11:25:52;;;;;;;11.27;10.77;;;;;;;;;;5071557;28;20032;-59
2023/08/07 11:28:20;;;;;;;11.90;11.40;;;;;;;;;;5070377;28;20029;-59
2023/08/07 11:30:49;;;;;;;11.70;11.20;;;;;;;;;;5071129;28;20016;-58
2023/08/07 11:33:15;;;;;;;11.65;11.15;;;;;;;;;;5071666;28;20024;-59
2023/08/07 11:35:41;;;;;;;11.57;11.07;;;;;;;;;;5070983;28;20024;-59
2023/08/07 11:38:06;;;;;;;11.88;11.38;;;;;;;;;;5066227;28;20036;-58
2023/08/07 11:40:31;;;;;;;11.90;11.40;;;;;;;;;;5071939;28;20028;-58
2023/08/07 11:42:57;;;;;;;11.87;11.37;;;;;;;;;;5071555;28;20017;-59
2023/08/07 11:45:22;;;;;;;11.90;11.40;;;;;;;;;;5070001;28;20310;-58
2023/08/07 11:47:48;;;;;;;12.85;12.25;;;;;;;;;;5068991;28;20702;-59
2023/08/07 11:50:13;;;;;;;11.85;11.35;;;;;;;;;;5069618;28;20044;-59
2023/08/07 11:52:40;;;;;;;11.52;11.02;;;;;;;;;;5071123;28;20024;-59
2023/08/07 11:55:07;;;;;;;11.73;11.23;;;;;;;;;;5070146;28;20023;-58
2023/08/07 11:57:32;;;;;;;12.73;12.13;;;;;;;;;;5071084;28;20020;-60
2023/08/07 11:59:58;;;;;;;12.02;11.52;;;;;;;;;;5069795;28;20017;-58
2023/08/07 12:02:24;;;;;;;11.98;11.48;;;;;;;;;;5070300;28;20036;-59
2023/08/07 12:04:49;;;;;;;11.20;10.70;;;;;;;;;;5071021;28;20073;-59
2023/08/07 12:07:19;;;;;;;12.27;11.68;;;;;;;;;;5071272;28;20012;-59
2023/08/07 12:09:44;;;;;;;11.80;11.30;;;;;;;;;;5070087;28;20025;-59
2023/08/07 12:12:11;;;;;;;11.77;11.27;;;;;;;;;;5069904;28;20020;-59
2023/08/07 12:14:36;;;;;;;12.75;12.15;;;;;;;;;;5069527;28;20050;-60
2023/08/07 12:17:02;;;;;;;11.65;11.15;;;;;;;;;;5070813;28;20160;-58
2023/08/07 12:19:42;;;;;;;11.85;11.35;;;;;;;;;;5071144;28;20024;-59
2023/08/07 12:22:10;;;;;;;11.68;11.18;;;;;;;;;;5068095;28;20090;-59
2023/08/07 12:24:36;;;;;;;12.35;11.77;;;;;;;;;;5069998;28;20107;-60
2023/08/07 12:27:02;;;;;;;11.95;11.45;;;;;;;;;;5067928;28;20031;-60
2023/08/07 12:29:29;;;;;;;12.70;12.10;;;;;;;;;;5069353;28;20028;-59
2023/08/07 12:31:54;;;;;;;12.13;11.63;;;;;;;;;;5070538;28;20054;-59
2023/08/07 12:34:19;;;;;;;12.50;11.90;;;;;;;;;;5069498;28;20032;-59
2023/08/07 12:36:45;;;;;;;12.30;11.70;;;;;;;;;;5069152;28;20017;-59
2023/08/07 12:39:10;;;;;;;12.45;11.85;;;;;;;;;;5069507;28;20021;-58
2023/08/07 12:41:35;;;;;;;12.60;12.00;;;;;;;;;;5069972;28;20021;-59
2023/08/07 12:44:01;;;;;;;11.02;10.52;;;;;;;;;;5069735;28;20651;-59
2023/08/07 12:46:26;;;;;;;11.88;11.38;;;;;;;;;;5068761;28;20532;-59
2023/08/07 12:48:51;;;;;;;12.43;11.82;;;;;;;;;;5052252;28;20021;-59
2023/08/07 12:51:17;;;;;;;12.38;11.77;;;;;;;;;;5069936;28;20119;-60
2023/08/07 12:53:44;;;;;;;12.27;11.73;;;;;;;;;;5068848;28;20095;-60
2023/08/07 12:56:10;;;;;;;12.38;11.77;;;;;;;;;;5071353;28;20142;-59
2023/08/07 12:58:35;;;;;;;12.38;11.77;;;;;;;;;;5070501;28;20430;-59
2023/08/07 13:01:01;;;;;;;12.07;11.55;;;;;;;;;;5068564;28;20041;-59
2023/08/07 13:03:26;;;;;;;12.57;11.98;;;;;;;;;;5069953;28;20051;-59
2023/08/07 13:05:51;;;;;;;11.75;11.25;;;;;;;;;;5068332;28;20060;-59
2023/08/07 13:08:17;;;;;;;12.25;11.70;;;;;;;;;;5069799;28;20021;-60
2023/08/07 13:10:42;;;;;;;12.18;11.63;;;;;;;;;;5069711;28;20463;-59
2023/08/07 13:13:07;;;;;;;12.30;11.73;;;;;;;;;;5070283;28;20518;-59
2023/08/07 13:15:32;;;;;;;12.00;11.50;;;;;;;;;;5068469;28;20399;-60
2023/08/07 13:17:58;;;;;;;12.40;11.80;;;;;;;;;;5070254;28;20468;-59
2023/08/07 13:20:25;;;;;;;12.77;12.18;;;;;;;;;;5066233;28;20075;-60
2023/08/07 13:22:51;;;;;;;12.30;11.70;;;;;;;;;;5067749;28;20025;-59
2023/08/07 13:25:16;;;;;;;12.02;11.52;;;;;;;;;;5068497;28;20104;-58
2023/08/07 13:27:41;;;;;;;12.00;11.50;;;;;;;;;;5069354;28;20046;-58
2023/08/07 13:30:08;;;;;;;11.90;11.40;;;;;;;;;;5069696;28;20107;-59
2023/08/07 13:32:34;;;;;;;11.70;11.20;;;;;;;;;;5068379;28;20025;-59
2023/08/07 13:34:59;;;;;;;11.43;10.93;;;;;;;;;;5069952;28;20543;-59
2023/08/07 13:37:24;;;;;;;11.60;11.10;;;;;;;;;;5069243;28;20092;-59
2023/08/07 13:39:52;;;;;;;11.75;11.25;;;;;;;;;;5070083;28;20487;-59
2023/08/07 13:42:17;;;;;;;11.80;11.30;;;;;;;;;;5070365;28;20028;-59
2023/08/07 13:44:42;;;;;;;11.75;11.25;;;;;;;;;;5067511;28;20081;-59
2023/08/07 13:47:09;;;;;;;12.70;12.10;;;;;;;;;;5067475;28;20092;-59
2023/08/07 13:49:35;;;;;;;12.50;11.90;;;;;;;;;;5067277;28;20033;-59
2023/08/07 13:52:00;;;;;;;12.32;11.75;;;;;;;;;;5068787;28;20033;-59
2023/08/07 13:54:25;;;;;;;11.98;11.48;;;;;;;;;;5066913;28;20009;-59
2023/08/07 13:56:51;;;;;;;11.93;11.43;;;;;;;;;;5068211;28;20112;-60
2023/08/07 13:59:16;;;;;;;11.80;11.30;;;;;;;;;;5070466;28;20328;-60
2023/08/07 14:01:41;;;;;;;12.13;11.60;;;;;;;;;;5062452;28;20045;-60
2023/08/07 14:04:07;;;;;;;12.27;11.70;;;;;;;;;;5047061;28;20045;-60
2023/08/07 14:06:32;;;;;;;11.60;11.10;;;;;;;;;;5038270;28;20258;-59
2023/08/07 14:08:58;;;;;;;11.77;11.27;;;;;;;;;;5053328;28;20024;-59